createdAt,value
2023-04-25T00:01:57.690Z,101224.27
2023-04-25T00:04:24.953Z,101226.93
2023-04-25T00:06:53.443Z,101222.77
2023-04-25T00:09:20.614Z,101223.63
2023-04-25T00:11:47.554Z,101221.20
2023-04-25T00:14:14.729Z,101217.91
2023-04-25T00:16:42.468Z,101216.90
2023-04-25T00:19:10.631Z,101211.86
2023-04-25T00:21:41.494Z,101211.36
2023-04-25T00:24:08.841Z,101203.52
2023-04-25T00:26:36.653Z,101203.89
2023-04-25T00:29:03.637Z,101205.70
2023-04-25T00:31:31.367Z,101211.32
2023-04-25T00:33:58.422Z,101209.80
2023-04-25T00:36:25.929Z,101208.60
2023-04-25T00:38:54.368Z,101206.02
2023-04-25T00:41:21.560Z,101203.92
2023-04-25T00:43:49.525Z,101199.23
2023-04-25T00:46:16.848Z,101197.17
2023-04-25T00:48:43.893Z,101194.44
2023-04-25T00:51:10.848Z,101192.39
2023-04-25T00:53:37.823Z,101191.56
2023-04-25T00:56:05.280Z,101191.55
2023-04-25T00:58:32.265Z,101189.98
2023-04-25T01:00:59.232Z,101189.69
2023-04-25T01:03:26.332Z,101193.55
2023-04-25T01:05:53.490Z,101190.25
2023-04-25T01:08:20.423Z,101185.17
2023-04-25T01:10:47.384Z,101181.90
2023-04-25T01:13:14.468Z,101179.84
2023-04-25T01:15:41.456Z,101176.18
2023-04-25T01:18:08.528Z,101181.09
2023-04-25T01:20:35.528Z,101182.65
2023-04-25T01:23:04.095Z,101179.84
2023-04-25T01:25:32.047Z,101180.41
2023-04-25T01:27:59.794Z,101177.43
2023-04-25T01:30:27.589Z,101171.48
2023-04-25T01:32:58.649Z,101169.24
2023-04-25T01:35:26.093Z,101168.23
2023-04-25T01:37:56.173Z,101164.59
2023-04-25T01:40:23.895Z,101162.02
2023-04-25T01:42:51.209Z,101163.25
2023-04-25T01:45:18.850Z,101161.87
2023-04-25T01:47:50.133Z,101158.58
2023-04-25T01:50:18.740Z,101158.58
2023-04-25T01:52:46.027Z,101153.35
2023-04-25T01:55:13.434Z,101151.17
2023-04-25T01:57:49.153Z,101151.73
2023-04-25T02:00:16.720Z,101147.23
2023-04-25T02:02:43.759Z,101143.21
2023-04-25T02:05:22.786Z,101146.04
2023-04-25T02:07:49.903Z,101144.48
2023-04-25T02:10:16.912Z,101145.04
2023-04-25T02:12:55.697Z,101141.55
2023-04-25T02:15:38.330Z,101142.95
2023-04-25T02:18:17.363Z,101143.83
2023-04-25T02:20:45.273Z,101144.71
2023-04-25T02:23:12.320Z,101144.36
2023-04-25T02:25:39.282Z,101147.54
2023-04-25T02:28:06.269Z,101147.38
2023-04-25T02:30:33.319Z,101145.95
2023-04-25T02:33:01.445Z,101146.99
2023-04-25T02:35:29.958Z,101141.77
2023-04-25T02:37:56.894Z,101137.73
2023-04-25T02:40:23.862Z,101138.23
2023-04-25T02:42:50.855Z,101137.55
2023-04-25T02:45:19.447Z,101139.80
2023-04-25T02:47:46.509Z,101136.98
2023-04-25T02:50:13.477Z,101141.54
2023-04-25T02:52:40.588Z,101145.91
2023-04-25T02:55:14.821Z,101144.86
2023-04-25T02:57:41.825Z,101146.96
2023-04-25T03:00:12.827Z,101143.80
2023-04-25T03:02:39.864Z,101138.23
2023-04-25T03:05:07.077Z,101137.17
2023-04-25T03:07:34.437Z,101132.10
2023-04-25T03:10:01.434Z,101131.91
2023-04-25T03:12:28.916Z,101132.06
2023-04-25T03:14:55.909Z,101130.99
2023-04-25T03:17:22.952Z,101134.13
2023-04-25T03:19:50.266Z,101137.09
2023-04-25T03:22:17.317Z,101132.90
2023-04-25T03:24:44.344Z,101132.38
2023-04-25T03:27:11.418Z,101131.25
2023-04-25T03:29:38.608Z,101132.26
2023-04-25T03:32:06.511Z,101134.11
2023-04-25T03:34:33.524Z,101133.73
2023-04-25T03:37:01.123Z,101131.76
2023-04-25T03:39:28.514Z,101137.48
2023-04-25T03:41:56.598Z,101138.13
2023-04-25T03:44:25.361Z,101135.02
2023-04-25T03:46:52.399Z,101136.76
2023-04-25T03:49:19.644Z,101133.73
2023-04-25T03:52:01.632Z,101133.44
2023-04-25T03:54:30.967Z,101134.39
2023-04-25T03:57:06.909Z,101134.50
2023-04-25T03:59:35.905Z,101132.70
2023-04-25T04:02:03.621Z,101133.20
2023-04-25T04:04:32.113Z,101131.39
2023-04-25T04:07:00.800Z,101126.95
2023-04-25T04:09:31.108Z,101127.23
2023-04-25T04:11:59.828Z,101124.58
2023-04-25T04:14:27.170Z,101126.45
2023-04-25T04:16:55.466Z,101123.03
2023-04-25T04:19:22.949Z,101120.05
2023-04-25T04:22:08.553Z,101123.08
2023-04-25T04:24:36.276Z,101124.40
2023-04-25T04:27:07.043Z,101121.73
2023-04-25T04:29:40.266Z,101124.23
2023-04-25T04:32:12.910Z,101121.13
2023-04-25T04:34:40.845Z,101124.77
2023-04-25T04:37:08.185Z,101118.42
2023-04-25T04:39:36.537Z,101117.11
2023-04-25T04:42:13.818Z,101113.05
2023-04-25T04:44:56.169Z,101111.60
2023-04-25T04:47:37.966Z,101109.92
2023-04-25T04:50:23.868Z,101107.23
2023-04-25T04:53:09.463Z,101107.50
2023-04-25T04:55:39.399Z,101109.98
2023-04-25T04:58:22.803Z,101107.20
2023-04-25T05:01:13.199Z,101102.80
2023-04-25T05:04:05.660Z,101099.27
2023-04-25T05:07:08.466Z,101096.20
2023-04-25T05:10:01.588Z,101098.05
2023-04-25T05:12:36.346Z,101096.83
2023-04-25T05:15:22.070Z,101094.30
2023-04-25T05:18:23.575Z,101085.29
2023-04-25T05:21:10.990Z,101079.95
2023-04-25T05:23:47.495Z,101077.67
2023-04-25T05:26:46.558Z,101073.77
2023-04-25T05:29:39.950Z,101068.52
2023-04-25T05:32:16.575Z,101069.59
2023-04-25T05:34:44.294Z,101069.33
2023-04-25T05:37:20.453Z,101067.16
2023-04-25T05:39:55.933Z,101069.51
2023-04-25T05:42:45.862Z,101068.23
2023-04-25T05:45:31.465Z,101066.77
2023-04-25T05:48:09.791Z,101066.02
2023-04-25T05:50:49.766Z,101060.30
2023-04-25T05:53:34.989Z,101067.44
2023-04-25T05:56:03.044Z,101068.06
2023-04-25T05:58:30.369Z,101061.27
2023-04-25T06:00:59.306Z,101065.46
2023-04-25T06:03:26.636Z,101067.29
2023-04-25T06:05:53.804Z,101064.46
2023-04-25T06:08:21.110Z,101060.27
2023-04-25T06:10:48.115Z,101062.30
2023-04-25T06:13:15.312Z,101067.48
2023-04-25T06:15:42.382Z,101058.86
2023-04-25T06:18:09.544Z,101058.67
2023-04-25T06:20:36.613Z,101053.98
2023-04-25T06:23:03.712Z,101048.54
2023-04-25T06:25:53.932Z,101046.33
2023-04-25T06:28:23.144Z,101047.67
2023-04-25T06:30:50.141Z,101052.64
2023-04-25T06:33:18.694Z,101054.64
2023-04-25T06:35:46.005Z,101061.23
2023-04-25T06:38:14.249Z,101062.88
2023-04-25T06:40:43.838Z,101062.90
2023-04-25T06:43:11.452Z,101065.08
2023-04-25T06:46:04.573Z,101057.77
2023-04-25T06:48:33.168Z,101057.23
2023-04-25T06:51:00.207Z,101060.38
2023-04-25T06:53:27.336Z,101059.45
2023-04-25T06:55:58.540Z,101058.99
2023-04-25T06:58:31.128Z,101055.29
2023-04-25T07:01:01.004Z,101056.06
2023-04-25T07:03:28.566Z,101056.29
2023-04-25T07:05:59.436Z,101059.21
2023-04-25T07:08:26.574Z,101057.85
2023-04-25T07:10:53.675Z,101057.36
2023-04-25T07:13:21.146Z,101057.69
2023-04-25T07:15:49.338Z,101055.65
2023-04-25T07:18:17.175Z,101053.21
2023-04-25T07:20:44.164Z,101055.23
2023-04-25T07:23:11.515Z,101054.27
2023-04-25T07:25:39.093Z,101054.52
2023-04-25T07:28:06.294Z,101054.77
2023-04-25T07:30:33.298Z,101059.48
2023-04-25T07:33:04.157Z,101057.42
2023-04-25T07:35:31.153Z,101058.37
2023-04-25T07:37:58.376Z,101056.78
2023-04-25T07:40:25.702Z,101056.84
2023-04-25T07:42:59.605Z,101056.98
2023-04-25T07:45:38.673Z,101055.54
2023-04-25T07:48:06.048Z,101057.37
2023-04-25T07:50:33.710Z,101056.32
2023-04-25T07:53:01.123Z,101057.86
2023-04-25T07:55:32.429Z,101057.29
2023-04-25T07:58:13.009Z,101057.20
2023-04-25T08:00:41.304Z,101059.55
2023-04-25T08:03:40.776Z,101058.46
2023-04-25T08:06:14.133Z,101059.55
2023-04-25T08:08:51.806Z,101056.19
2023-04-25T08:11:20.300Z,101058.52
2023-04-25T08:13:47.269Z,101057.87
2023-04-25T08:16:14.422Z,101059.02
2023-04-25T08:18:41.514Z,101061.38
2023-04-25T08:21:10.061Z,101067.34
2023-04-25T08:23:37.102Z,101065.60
2023-04-25T08:26:12.440Z,101065.44
2023-04-25T08:28:39.536Z,101066.42
2023-04-25T08:31:07.327Z,101068.35
2023-04-25T08:33:41.671Z,101069.72
2023-04-25T08:36:31.615Z,101070.48
2023-04-25T08:39:06.421Z,101070.86
2023-04-25T08:41:34.813Z,101066.01
2023-04-25T08:44:02.154Z,101064.39
2023-04-25T08:46:29.518Z,101059.69
2023-04-25T08:49:16.751Z,101057.56
2023-04-25T08:51:51.695Z,101057.35
2023-04-25T08:54:34.486Z,101056.48
2023-04-25T08:57:03.427Z,101057.80
2023-04-25T08:59:31.221Z,101059.52
2023-04-25T09:01:58.768Z,101059.34
2023-04-25T09:04:26.289Z,101058.39
2023-04-25T09:06:53.587Z,101051.41
2023-04-25T09:09:20.727Z,101052.56
2023-04-25T09:11:47.706Z,101047.54
2023-04-25T09:14:19.269Z,101045.45
2023-04-25T09:17:05.897Z,101043.77
2023-04-25T09:19:42.172Z,101043.98
2023-04-25T09:22:23.917Z,101045.13
2023-04-25T09:24:52.366Z,101044.48
2023-04-25T09:27:24.054Z,101045.00
2023-04-25T09:30:04.164Z,101049.36
2023-04-25T09:33:04.796Z,101051.21
2023-04-25T09:35:36.066Z,101047.57
2023-04-25T09:38:07.924Z,101045.09
2023-04-25T09:40:53.425Z,101041.21
2023-04-25T09:43:40.824Z,101042.21
2023-04-25T09:46:12.492Z,101040.03
2023-04-25T09:48:55.031Z,101035.90
2023-04-25T09:51:31.368Z,101036.32
2023-04-25T09:53:58.974Z,101032.55
2023-04-25T09:56:33.163Z,101028.17
2023-04-25T09:59:01.434Z,101026.36
2023-04-25T10:01:28.473Z,101025.18
2023-04-25T10:04:03.518Z,101024.90
2023-04-25T10:06:45.273Z,101024.54
2023-04-25T10:09:12.855Z,101018.02
2023-04-25T10:11:39.954Z,101018.67
2023-04-25T10:14:07.410Z,101016.49
2023-04-25T10:16:34.357Z,101011.21
2023-04-25T10:19:01.373Z,101014.35
2023-04-25T10:21:28.626Z,101011.09
2023-04-25T10:23:55.586Z,101009.67
2023-04-25T10:26:23.167Z,101007.89
2023-04-25T10:28:57.900Z,101005.38
2023-04-25T10:31:24.896Z,101004.42
2023-04-25T10:33:52.508Z,101002.30
2023-04-25T10:36:20.590Z,101000.59
2023-04-25T10:38:48.740Z,101003.46
2023-04-25T10:41:15.758Z,101005.15
2023-04-25T10:43:43.933Z,101005.19
2023-04-25T10:46:20.846Z,101005.86
2023-04-25T10:48:49.755Z,101007.20
2023-04-25T10:51:24.582Z,101005.97
2023-04-25T10:54:04.532Z,101010.64
2023-04-25T10:56:42.621Z,101006.17
2023-04-25T10:59:17.320Z,101009.98
2023-04-25T11:01:48.318Z,101006.52
2023-04-25T11:04:25.264Z,101007.05
2023-04-25T11:07:10.889Z,101003.45
2023-04-25T11:09:41.205Z,100994.21
2023-04-25T11:12:12.984Z,100993.29
2023-04-25T11:17:12.910Z,100996.01
2023-04-25T11:19:40.030Z,100991.80
2023-04-25T11:22:07.934Z,100994.20
2023-04-25T11:24:36.543Z,100993.88
2023-04-25T11:27:03.948Z,100991.16
2023-04-25T11:29:31.781Z,100985.39
2023-04-25T11:31:59.571Z,100978.50
2023-04-25T11:34:27.156Z,100977.71
2023-04-25T11:36:54.567Z,100975.88
2023-04-25T11:39:21.575Z,100978.95
2023-04-25T11:41:48.723Z,100975.08
2023-04-25T11:44:19.762Z,100974.18
2023-04-25T11:46:47.120Z,100969.10
2023-04-25T11:49:14.893Z,100975.77
2023-04-25T11:51:42.855Z,100971.90
2023-04-25T11:54:10.215Z,100966.73
2023-04-25T11:56:37.179Z,100964.17
2023-04-25T11:59:05.841Z,100960.25
2023-04-25T12:01:35.415Z,100954.96
2023-04-25T12:04:25.398Z,100954.52
2023-04-25T12:06:54.880Z,100953.80
2023-04-25T12:09:28.434Z,100950.20
2023-04-25T12:11:56.483Z,100947.81
2023-04-25T12:14:32.488Z,100945.21
2023-04-25T12:17:00.535Z,100938.49
2023-04-25T12:19:28.040Z,100936.60
2023-04-25T12:21:58.561Z,100932.77
2023-04-25T12:24:28.682Z,100930.00
2023-04-25T12:27:03.583Z,100932.79
2023-04-25T12:29:47.906Z,100933.02
2023-04-25T12:32:17.126Z,100933.15
2023-04-25T12:34:44.090Z,100931.28
2023-04-25T12:37:11.566Z,100928.11
2023-04-25T12:39:38.814Z,100924.15
2023-04-25T12:42:09.344Z,100923.98
2023-04-25T12:44:36.775Z,100920.19
2023-04-25T12:47:04.940Z,100917.41
2023-04-25T12:49:33.252Z,100916.43
2023-04-25T12:52:01.369Z,100916.11
2023-04-25T12:54:29.349Z,100916.17
2023-04-25T12:56:57.313Z,100910.96
2023-04-25T12:59:25.193Z,100906.90
2023-04-25T13:01:53.971Z,100905.06
2023-04-25T13:04:23.052Z,100901.59
2023-04-25T13:06:51.190Z,100901.38
2023-04-25T13:09:19.075Z,100898.89
2023-04-25T13:11:47.506Z,100894.33
2023-04-25T13:14:15.152Z,100892.47
2023-04-25T13:16:42.844Z,100893.52
2023-04-25T13:19:12.790Z,100890.18
2023-04-25T13:21:40.105Z,100886.83
2023-04-25T13:24:07.740Z,100884.00
2023-04-25T13:26:35.041Z,100881.93
2023-04-25T13:29:04.960Z,100876.72
2023-04-25T13:31:32.757Z,100869.85
2023-04-25T13:34:00.040Z,100867.45
2023-04-25T13:36:27.475Z,100859.77
2023-04-25T13:38:54.613Z,100859.05
2023-04-25T13:41:21.854Z,100856.54
2023-04-25T13:43:49.594Z,100859.24
2023-04-25T13:46:35.349Z,100858.05
2023-04-25T13:49:12.305Z,100851.75
2023-04-25T13:51:40.962Z,100846.65
2023-04-25T13:54:08.916Z,100845.31
2023-04-25T13:56:36.862Z,100845.95
2023-04-25T13:59:04.250Z,100841.34
2023-04-25T14:01:35.698Z,100843.64
2023-04-25T14:04:05.231Z,100847.05
2023-04-25T14:06:33.299Z,100841.98
2023-04-25T14:09:02.378Z,100837.45
2023-04-25T14:11:30.016Z,100831.61
2023-04-25T14:13:57.582Z,100832.39
2023-04-25T14:16:25.564Z,100828.13
2023-04-25T14:18:53.376Z,100831.73
2023-04-25T14:21:22.030Z,100830.16
2023-04-25T14:23:49.958Z,100824.75
2023-04-25T14:26:18.011Z,100828.00
2023-04-25T14:28:45.623Z,100824.58
2023-04-25T14:31:13.329Z,100820.73
2023-04-25T14:33:43.883Z,100815.14
2023-04-25T14:36:11.974Z,100815.31
2023-04-25T14:38:39.701Z,100812.81
2023-04-25T14:41:07.478Z,100807.52
2023-04-25T14:43:35.019Z,100803.16
2023-04-25T14:46:03.285Z,100801.84
2023-04-25T14:48:31.273Z,100799.08
2023-04-25T14:50:58.973Z,100800.42
2023-04-25T14:53:26.544Z,100795.28
2023-04-25T14:55:54.175Z,100793.29
2023-04-25T14:58:21.726Z,100791.62
2023-04-25T15:00:49.346Z,100786.31
2023-04-25T15:03:18.530Z,100776.89
2023-04-25T15:05:46.514Z,100780.20
2023-04-25T15:08:14.101Z,100781.88
2023-04-25T15:10:41.753Z,100776.27
2023-04-25T15:13:09.566Z,100774.91
2023-04-25T15:15:37.292Z,100768.54
2023-04-25T15:18:05.024Z,100764.49
2023-04-25T15:20:33.078Z,100757.73
2023-04-25T15:23:00.884Z,100756.22
2023-04-25T15:25:30.158Z,100754.02
2023-04-25T15:27:57.723Z,100751.50
2023-04-25T15:30:25.290Z,100745.78
2023-04-25T15:32:53.125Z,100742.54
2023-04-25T15:35:20.730Z,100735.98
2023-04-25T15:37:48.342Z,100736.38
2023-04-25T15:40:16.680Z,100739.53
2023-04-25T15:42:48.542Z,100742.67
2023-04-25T15:45:18.161Z,100743.44
2023-04-25T15:47:45.949Z,100747.27
2023-04-25T15:50:14.157Z,100744.84
2023-04-25T15:52:42.702Z,100745.42
2023-04-25T15:55:10.670Z,100739.21
2023-04-25T15:57:39.486Z,100733.63
2023-04-25T16:00:14.021Z,100733.58
2023-04-25T16:02:42.274Z,100728.89
2023-04-25T16:05:11.729Z,100726.65
2023-04-25T16:07:43.248Z,100727.42
2023-04-25T16:10:11.966Z,100722.64
2023-04-25T16:12:40.268Z,100719.25
2023-04-25T16:15:08.722Z,100716.21
2023-04-25T16:17:36.809Z,100711.84
2023-04-25T16:20:10.630Z,100708.66
2023-04-25T16:22:39.305Z,100708.17
2023-04-25T16:25:07.661Z,100701.34
2023-04-25T16:27:35.903Z,100693.61
2023-04-25T16:30:04.244Z,100697.27
2023-04-25T16:32:32.141Z,100694.79
2023-04-25T16:34:59.991Z,100693.31
2023-04-25T16:37:28.242Z,100692.22
2023-04-25T16:39:56.219Z,100691.33
2023-04-25T16:42:24.133Z,100687.79
2023-04-25T16:44:52.096Z,100683.04
2023-04-25T16:47:20.697Z,100682.51
2023-04-25T16:49:48.786Z,100687.55
2023-04-25T16:52:16.910Z,100687.93
2023-04-25T16:54:44.809Z,100687.88
2023-04-25T16:57:12.987Z,100687.96
2023-04-25T16:59:40.958Z,100685.86
2023-04-25T17:02:11.911Z,100688.60
2023-04-25T17:04:42.208Z,100688.77
2023-04-25T17:07:10.129Z,100694.00
2023-04-25T17:09:38.117Z,100693.83
2023-04-25T17:12:07.747Z,100693.74
2023-04-25T17:14:37.328Z,100696.83
2023-04-25T17:17:05.526Z,100704.27
2023-04-25T17:19:33.565Z,100704.31
2023-04-25T17:22:02.059Z,100707.39
2023-04-25T17:24:30.004Z,100707.77
2023-04-25T17:26:57.970Z,100709.06
2023-04-25T17:29:27.407Z,100712.42
2023-04-25T17:31:57.672Z,100715.64
2023-04-25T17:34:27.178Z,100716.03
2023-04-25T17:36:55.325Z,100718.94
2023-04-25T17:39:24.365Z,100720.72
2023-04-25T17:41:52.784Z,100723.54
2023-04-25T17:44:22.540Z,100726.91
2023-04-25T17:46:50.453Z,100726.27
2023-04-25T17:49:18.372Z,100729.96
2023-04-25T17:51:46.360Z,100727.80
2023-04-25T17:54:15.326Z,100730.70
2023-04-25T17:56:45.382Z,100736.45
2023-04-25T17:59:13.429Z,100737.15
2023-04-25T18:01:45.571Z,100737.77
2023-04-25T18:04:15.477Z,100736.05
2023-04-25T18:06:45.634Z,100736.63
2023-04-25T18:09:19.242Z,100737.72
2023-04-25T18:11:47.846Z,100734.25
2023-04-25T18:14:16.096Z,100737.51
2023-04-25T18:16:44.745Z,100733.38
2023-04-25T18:19:16.030Z,100734.37
2023-04-25T18:21:44.624Z,100729.06
2023-04-25T18:24:13.613Z,100730.20
2023-04-25T18:26:41.627Z,100733.77
2023-04-25T18:29:14.013Z,100736.70
2023-04-25T18:31:49.374Z,100741.80
2023-04-25T18:34:19.830Z,100743.33
2023-04-25T18:36:48.899Z,100741.05
2023-04-25T18:39:22.276Z,100736.91
2023-04-25T18:41:58.803Z,100735.24
2023-04-25T18:44:34.178Z,100735.34
2023-04-25T18:47:02.433Z,100731.10
2023-04-25T18:49:30.389Z,100729.50
2023-04-25T18:51:58.677Z,100730.07
2023-04-25T18:54:26.834Z,100726.41
2023-04-25T18:56:56.376Z,100727.19
2023-04-25T18:59:25.443Z,100729.06
2023-04-25T19:01:54.593Z,100727.42
2023-04-25T19:04:24.599Z,100724.64
2023-04-25T19:06:52.875Z,100723.08
2023-04-25T19:09:20.937Z,100717.55
2023-04-25T19:11:48.819Z,100716.02
2023-04-25T19:14:17.910Z,100711.06
2023-04-25T19:16:46.358Z,100715.36
2023-04-25T19:19:14.429Z,100710.78
2023-04-25T19:21:42.591Z,100710.81
2023-04-25T19:24:10.580Z,100706.83
2023-04-25T19:26:39.623Z,100706.72
2023-04-25T19:29:13.030Z,100703.93
2023-04-25T19:31:43.621Z,100700.67
2023-04-25T19:34:11.895Z,100700.35
2023-04-25T19:36:40.806Z,100702.28
2023-04-25T19:39:08.817Z,100695.48
2023-04-25T19:41:37.861Z,100691.52
2023-04-25T19:44:09.421Z,100691.32
2023-04-25T19:46:37.729Z,100691.44
2023-04-25T19:49:08.975Z,100686.73
2023-04-25T19:51:37.812Z,100682.67
2023-04-25T19:54:05.814Z,100680.20
2023-04-25T19:56:33.858Z,100675.81
2023-04-25T19:59:01.940Z,100674.75
2023-04-25T20:01:30.096Z,100673.60
2023-04-25T20:03:58.043Z,100671.16
2023-04-25T20:06:25.711Z,100671.17
2023-04-25T20:08:55.971Z,100670.27
2023-04-25T20:11:23.172Z,100668.08
2023-04-25T20:13:50.442Z,100664.48
2023-04-25T20:16:20.080Z,100660.82
2023-04-25T20:18:48.464Z,100662.61
2023-04-25T20:21:17.115Z,100667.26
2023-04-25T20:23:44.420Z,100667.04
2023-04-25T20:26:12.791Z,100669.44
2023-04-25T20:28:39.958Z,100669.55
2023-04-25T20:31:07.218Z,100668.67
2023-04-25T20:33:35.357Z,100666.77
2023-04-25T20:36:02.409Z,100669.20
2023-04-25T20:38:29.353Z,100672.14
2023-04-25T20:40:56.682Z,100673.58
2023-04-25T20:43:23.733Z,100669.23
2023-04-25T20:45:50.978Z,100665.06
2023-04-25T20:48:18.296Z,100664.41
2023-04-25T20:50:46.381Z,100670.02
2023-04-25T20:53:13.788Z,100667.79
2023-04-25T20:55:42.095Z,100664.17
2023-04-25T20:58:09.138Z,100662.48
2023-04-25T21:00:36.477Z,100661.82
2023-04-25T21:03:05.168Z,100665.73
2023-04-25T21:05:32.427Z,100660.70
2023-04-25T21:07:59.480Z,100657.27
2023-04-25T21:10:26.724Z,100655.52
2023-04-25T21:12:55.910Z,100649.22
2023-04-25T21:15:22.964Z,100650.98
2023-04-25T21:17:50.261Z,100652.38
2023-04-25T21:20:18.244Z,100649.36
2023-04-25T21:22:54.283Z,100645.80
2023-04-25T21:25:29.183Z,100644.50
2023-04-25T21:27:56.396Z,100646.00
2023-04-25T21:30:24.069Z,100646.28
2023-04-25T21:32:51.456Z,100646.42
2023-04-25T21:35:19.549Z,100647.55
2023-04-25T21:37:46.713Z,100645.29
2023-04-25T21:40:14.324Z,100645.31
2023-04-25T21:42:46.009Z,100646.70
2023-04-25T21:45:13.030Z,100646.67
2023-04-25T21:47:40.002Z,100639.98
2023-04-25T21:50:08.093Z,100640.21
2023-04-25T21:52:38.285Z,100635.77
2023-04-25T21:55:05.919Z,100628.27
2023-04-25T21:57:32.899Z,100626.16
2023-04-25T21:59:59.846Z,100623.75
2023-04-25T22:02:29.660Z,100620.94
2023-04-25T22:04:56.950Z,100624.61
2023-04-25T22:07:23.955Z,100620.38
2023-04-25T22:09:54.927Z,100619.33
2023-04-25T22:12:23.628Z,100614.94
2023-04-25T22:14:51.188Z,100614.91
2023-04-25T22:17:19.066Z,100613.86
2023-04-25T22:19:47.105Z,100611.77
2023-04-25T22:22:14.364Z,100612.14
2023-04-25T22:24:42.373Z,100612.48
2023-04-25T22:27:11.127Z,100614.01
2023-04-25T22:29:38.165Z,100612.05
2023-04-25T22:32:05.358Z,100615.86
2023-04-25T22:34:32.355Z,100612.29
2023-04-25T22:36:59.743Z,100605.96
2023-04-25T22:39:26.849Z,100603.13
2023-04-25T22:41:54.505Z,100600.18
2023-04-25T22:44:22.456Z,100598.08
2023-04-25T22:46:49.518Z,100599.33
2023-04-25T22:49:17.430Z,100599.15
2023-04-25T22:51:44.546Z,100595.31
2023-04-25T22:54:11.484Z,100592.19
2023-04-25T22:56:38.419Z,100591.31
2023-04-25T22:59:05.342Z,100590.25
2023-04-25T23:01:32.327Z,100584.80
2023-04-25T23:03:59.761Z,100586.71
2023-04-25T23:06:27.020Z,100583.38
2023-04-25T23:08:54.137Z,100577.75
2023-04-25T23:11:21.961Z,100578.26
2023-04-25T23:13:48.935Z,100576.66
2023-04-25T23:16:16.265Z,100576.80
2023-04-25T23:18:43.312Z,100573.32
2023-04-25T23:21:11.556Z,100573.73
2023-04-25T23:23:38.876Z,100575.13
2023-04-25T23:26:11.883Z,100573.69
2023-04-25T23:28:41.608Z,100578.48
2023-04-25T23:31:09.696Z,100578.41
2023-04-25T23:33:36.753Z,100579.51
2023-04-25T23:36:03.949Z,100579.99
2023-04-25T23:38:31.080Z,100584.05
2023-04-25T23:40:58.122Z,100581.99
2023-04-25T23:43:25.104Z,100585.14
2023-04-25T23:45:52.167Z,100582.84
2023-04-25T23:48:19.209Z,100581.80
2023-04-25T23:50:46.160Z,100585.70
2023-04-25T23:53:13.293Z,100589.95
2023-04-25T23:55:40.867Z,100588.98
2023-04-25T23:58:08.143Z,100591.05
